createdAt,value
2018-07-30T00:02:29.171Z,1.33
2018-07-30T00:04:56.782Z,1.60
2018-07-30T00:07:24.483Z,1.40
2018-07-30T00:09:52.414Z,1.20
2018-07-30T00:12:20.196Z,1.50
2018-07-30T00:14:48.059Z,1.40
2018-07-30T00:17:16.067Z,1.30
2018-07-30T00:19:43.683Z,1.53
2018-07-30T00:22:11.511Z,1.57
2018-07-30T00:24:39.026Z,1.17
2018-07-30T00:27:06.919Z,1.60
2018-07-30T00:29:34.850Z,1.60
2018-07-30T00:32:02.477Z,1.23
2018-07-30T00:34:30.391Z,1.17
2018-07-30T00:36:57.962Z,1.03
2018-07-30T00:39:25.853Z,1.43
2018-07-30T00:41:53.911Z,1.50
2018-07-30T00:44:21.533Z,2.10
2018-07-30T00:46:49.181Z,1.87
2018-07-30T00:49:16.889Z,1.53
2018-07-30T00:51:44.777Z,1.30
2018-07-30T00:54:12.393Z,1.50
2018-07-30T00:56:40.215Z,1.27
2018-07-30T00:59:08.131Z,1.40
2018-07-30T01:01:35.781Z,1.20
2018-07-30T01:04:03.703Z,1.10
2018-07-30T01:06:31.684Z,1.33
2018-07-30T01:08:59.425Z,1.00
2018-07-30T01:11:27.197Z,1.20
2018-07-30T01:13:55.037Z,1.10
2018-07-30T01:16:23.237Z,1.50
2018-07-30T01:18:50.928Z,1.43
2018-07-30T01:21:18.611Z,1.50
2018-07-30T01:23:46.279Z,1.57
2018-07-30T01:26:19.519Z,1.17
2018-07-30T01:28:47.166Z,0.97
2018-07-30T01:31:14.771Z,1.57
2018-07-30T01:33:42.416Z,1.10
2018-07-30T01:36:10.048Z,1.50
2018-07-30T01:38:37.725Z,1.50
2018-07-30T01:41:05.871Z,1.30
2018-07-30T01:43:34.259Z,1.53
2018-07-30T01:46:03.256Z,1.33
2018-07-30T01:48:31.291Z,1.40
2018-07-30T01:50:59.396Z,1.70
2018-07-30T01:53:27.833Z,1.53
2018-07-30T01:55:55.745Z,1.77
2018-07-30T01:58:23.760Z,1.50
2018-07-30T02:00:51.489Z,1.50
2018-07-30T02:03:19.309Z,1.60
2018-07-30T02:05:47.021Z,1.83
2018-07-30T02:08:15.136Z,1.37
2018-07-30T02:10:42.858Z,1.70
2018-07-30T02:13:10.898Z,2.00
2018-07-30T02:15:38.598Z,1.47
2018-07-30T02:18:06.652Z,1.33
2018-07-30T02:20:34.616Z,1.57
2018-07-30T02:23:02.592Z,1.67
2018-07-30T02:25:30.504Z,1.60
2018-07-30T02:27:58.523Z,1.53
2018-07-30T02:30:26.445Z,1.83
2018-07-30T02:32:54.550Z,1.60
2018-07-30T02:35:22.378Z,1.73
2018-07-30T02:37:50.362Z,1.43
2018-07-30T02:40:18.408Z,1.50
2018-07-30T02:42:46.254Z,1.37
2018-07-30T02:45:14.151Z,1.70
2018-07-30T02:47:41.948Z,1.60
2018-07-30T02:50:09.618Z,1.70
2018-07-30T02:52:37.576Z,1.50
2018-07-30T02:55:05.395Z,1.50
2018-07-30T02:57:33.360Z,1.63
2018-07-30T03:00:02.324Z,1.37
2018-07-30T03:02:30.077Z,1.53
2018-07-30T03:04:58.011Z,1.53
2018-07-30T03:07:26.053Z,1.67
2018-07-30T03:09:53.901Z,1.93
2018-07-30T03:12:21.437Z,1.67
2018-07-30T03:14:49.281Z,2.10
2018-07-30T03:17:16.957Z,1.53
2018-07-30T03:19:44.671Z,1.80
2018-07-30T03:22:12.365Z,1.90
2018-07-30T03:24:39.963Z,2.07
2018-07-30T03:27:07.832Z,1.70
2018-07-30T03:29:35.491Z,1.90
2018-07-30T03:32:03.515Z,2.43
2018-07-30T03:34:31.159Z,2.20
2018-07-30T03:36:59.033Z,1.67
2018-07-30T03:39:26.663Z,1.80
2018-07-30T03:41:54.567Z,1.60
2018-07-30T03:44:22.334Z,1.60
2018-07-30T03:46:49.953Z,2.20
2018-07-30T03:49:17.525Z,1.80
2018-07-30T03:51:45.297Z,1.70
2018-07-30T03:54:12.983Z,2.07
2018-07-30T03:56:40.587Z,2.00
2018-07-30T03:59:08.319Z,1.70
2018-07-30T04:01:36.273Z,1.70
2018-07-30T04:04:04.215Z,1.60
2018-07-30T04:06:31.884Z,1.60
2018-07-30T04:08:59.608Z,1.90
2018-07-30T04:11:27.314Z,1.50
2018-07-30T04:13:55.147Z,1.63
2018-07-30T04:16:22.793Z,1.73
2018-07-30T04:18:50.776Z,2.00
2018-07-30T04:21:18.403Z,1.70
2018-07-30T04:23:46.334Z,1.97
2018-07-30T04:26:14.080Z,1.80
2018-07-30T04:28:41.747Z,1.60
2018-07-30T04:31:09.614Z,1.60
2018-07-30T04:33:37.762Z,1.90
2018-07-30T04:36:05.364Z,2.07
2018-07-30T04:38:33.177Z,1.60
2018-07-30T04:41:00.912Z,1.90
2018-07-30T04:43:28.851Z,1.90
2018-07-30T04:45:56.741Z,1.33
2018-07-30T04:48:24.720Z,1.83
2018-07-30T04:50:52.427Z,1.97
2018-07-30T04:53:20.261Z,1.67
2018-07-30T04:55:47.887Z,2.10
2018-07-30T04:58:15.614Z,1.73
2018-07-30T05:00:43.294Z,1.73
2018-07-30T05:03:11.296Z,2.43
2018-07-30T05:05:38.872Z,1.83
2018-07-30T05:08:06.800Z,1.80
2018-07-30T05:10:34.809Z,1.77
2018-07-30T05:13:02.577Z,1.60
2018-07-30T05:15:30.176Z,3.10
2018-07-30T05:17:57.768Z,1.80
2018-07-30T05:20:25.414Z,2.07
2018-07-30T05:22:53.271Z,1.77
2018-07-30T05:25:21.302Z,1.60
2018-07-30T05:27:49.721Z,1.43
2018-07-30T05:30:17.620Z,1.57
2018-07-30T05:32:45.244Z,1.73
2018-07-30T05:35:14.045Z,1.50
2018-07-30T05:37:41.650Z,1.87
2018-07-30T05:40:09.584Z,1.97
2018-07-30T05:42:37.281Z,1.57
2018-07-30T05:45:05.258Z,1.60
2018-07-30T05:47:33.183Z,1.70
2018-07-30T05:50:00.890Z,1.83
2018-07-30T05:52:28.650Z,1.60
2018-07-30T05:54:57.272Z,1.70
2018-07-30T05:57:24.936Z,1.80
2018-07-30T05:59:52.639Z,1.50
2018-07-30T06:02:20.254Z,1.97
2018-07-30T06:04:47.970Z,1.80
2018-07-30T06:07:17.331Z,1.83
2018-07-30T06:09:45.113Z,1.60
2018-07-30T06:12:13.446Z,1.77
2018-07-30T06:14:41.071Z,1.97
2018-07-30T06:17:08.744Z,2.00
2018-07-30T06:19:36.390Z,1.80
2018-07-30T06:22:03.989Z,1.70
2018-07-30T06:24:32.034Z,1.47
2018-07-30T06:27:00.119Z,1.80
2018-07-30T06:29:28.113Z,2.07
2018-07-30T06:31:56.107Z,1.83
2018-07-30T06:34:25.089Z,1.37
2018-07-30T06:36:52.690Z,2.07
2018-07-30T06:39:20.444Z,1.37
2018-07-30T06:41:50.978Z,1.60
2018-07-30T06:44:18.620Z,1.37
2018-07-30T06:46:46.281Z,1.40
2018-07-30T06:49:14.053Z,1.00
2018-07-30T06:51:41.970Z,1.33
2018-07-30T06:54:09.745Z,1.50
2018-07-30T06:56:39.599Z,1.60
2018-07-30T06:59:07.235Z,1.60
2018-07-30T07:01:34.935Z,1.73
2018-07-30T07:04:02.487Z,1.17
2018-07-30T07:06:30.130Z,1.30
2018-07-30T07:08:58.007Z,1.20
2018-07-30T07:11:26.038Z,0.83
2018-07-30T07:13:53.921Z,1.30
2018-07-30T07:16:21.847Z,1.00
2018-07-30T07:18:49.537Z,0.93
2018-07-30T07:21:17.487Z,1.20
2018-07-30T07:23:45.323Z,1.10
2018-07-30T07:26:13.264Z,0.73
2018-07-30T07:28:41.152Z,1.27
2018-07-30T07:31:10.066Z,1.00
2018-07-30T07:33:37.829Z,1.10
2018-07-30T07:36:05.900Z,1.10
2018-07-30T07:38:33.880Z,1.20
2018-07-30T07:41:08.845Z,1.13
2018-07-30T07:43:36.595Z,1.53
2018-07-30T07:46:04.187Z,1.20
2018-07-30T07:48:31.912Z,1.43
2018-07-30T07:51:00.038Z,1.13
2018-07-30T07:53:27.790Z,1.47
2018-07-30T07:55:55.768Z,0.90
2018-07-30T07:58:23.739Z,1.13
2018-07-30T08:00:51.662Z,1.40
2018-07-30T08:03:19.879Z,1.00
2018-07-30T08:05:47.794Z,1.30
2018-07-30T08:08:15.721Z,0.70
2018-07-30T08:10:43.653Z,1.00
2018-07-30T08:13:11.611Z,1.00
2018-07-30T08:15:39.634Z,1.17
2018-07-30T08:18:07.647Z,1.00
2018-07-30T08:20:36.243Z,1.10
2018-07-30T08:23:04.410Z,1.57
2018-07-30T08:25:32.406Z,1.30
2018-07-30T08:28:00.402Z,0.90
2018-07-30T08:30:29.489Z,1.00
2018-07-30T08:32:57.791Z,0.80
2018-07-30T08:35:25.693Z,0.97
2018-07-30T08:37:53.670Z,1.00
2018-07-30T08:40:22.313Z,0.80
2018-07-30T08:42:50.263Z,0.87
2018-07-30T08:45:18.239Z,0.93
2018-07-30T08:47:46.373Z,0.70
2018-07-30T08:50:14.541Z,0.70
2018-07-30T08:52:42.516Z,1.00
2018-07-30T08:55:10.505Z,0.70
2018-07-30T08:57:39.064Z,1.13
2018-07-30T09:00:08.505Z,0.50
2018-07-30T09:02:36.834Z,0.60
2018-07-30T09:05:04.851Z,0.60
2018-07-30T09:07:32.711Z,0.80
2018-07-30T09:10:00.669Z,0.93
2018-07-30T09:12:28.646Z,1.00
2018-07-30T09:14:56.630Z,0.80
2018-07-30T09:17:24.539Z,0.80
2018-07-30T09:19:52.546Z,0.70
2018-07-30T09:22:20.511Z,0.70
2018-07-30T09:24:48.271Z,0.77
2018-07-30T09:27:16.143Z,0.77
2018-07-30T09:29:44.138Z,0.80
2018-07-30T09:32:12.044Z,0.70
2018-07-30T09:34:40.033Z,0.70
2018-07-30T09:37:07.959Z,1.00
2018-07-30T09:39:36.031Z,0.70
2018-07-30T09:42:04.013Z,0.53
2018-07-30T09:44:32.050Z,0.80
2018-07-30T09:47:00.130Z,0.60
2018-07-30T09:49:28.661Z,0.90
2018-07-30T09:51:56.736Z,0.70
2018-07-30T09:54:25.156Z,0.60
2018-07-30T09:56:53.149Z,0.60
2018-07-30T09:59:21.100Z,0.60
2018-07-30T10:01:49.128Z,1.00
2018-07-30T10:04:17.107Z,0.67
2018-07-30T10:06:45.065Z,0.50
2018-07-30T10:09:13.837Z,0.77
2018-07-30T10:11:41.955Z,0.70
2018-07-30T10:14:09.782Z,0.63
2018-07-30T10:16:37.729Z,0.70
2018-07-30T10:19:05.660Z,0.80
2018-07-30T10:21:33.615Z,0.60
2018-07-30T10:24:02.273Z,0.70
2018-07-30T10:26:30.302Z,0.80
2018-07-30T10:28:58.152Z,0.77
2018-07-30T10:31:26.083Z,0.60
2018-07-30T10:33:54.004Z,0.80
2018-07-30T10:36:22.618Z,0.60
2018-07-30T10:38:50.742Z,0.50
2018-07-30T10:41:18.751Z,0.80
2018-07-30T10:43:46.698Z,1.00
2018-07-30T10:46:14.654Z,0.70
2018-07-30T10:48:42.840Z,0.83
2018-07-30T10:51:10.829Z,1.17
2018-07-30T10:53:38.919Z,0.90
2018-07-30T10:56:06.843Z,0.80
2018-07-30T10:58:34.937Z,0.95
2018-07-30T11:01:03.002Z,0.75
2018-07-30T11:03:30.915Z,0.68
2018-07-30T11:05:59.947Z,0.73
2018-07-30T11:08:28.117Z,0.80
2018-07-30T11:10:56.657Z,0.90
2018-07-30T11:13:24.736Z,1.00
2018-07-30T11:15:52.537Z,0.60
2018-07-30T11:18:20.474Z,0.80
2018-07-30T11:20:48.463Z,1.77
2018-07-30T11:23:16.463Z,0.70
2018-07-30T11:25:45.211Z,0.93
2018-07-30T11:28:13.300Z,0.78
2018-07-30T11:30:41.310Z,1.10
2018-07-30T11:33:09.308Z,1.05
2018-07-30T11:35:37.230Z,0.90
2018-07-30T11:38:05.311Z,0.95
2018-07-30T11:40:34.027Z,1.00
2018-07-30T11:43:02.281Z,1.30
2018-07-30T11:45:30.750Z,0.80
2018-07-30T11:47:58.725Z,0.93
2018-07-30T11:50:27.054Z,1.00
2018-07-30T11:52:55.174Z,0.95
2018-07-30T11:55:23.525Z,1.10
2018-07-30T11:57:51.921Z,1.02
2018-07-30T12:00:20.425Z,0.70
2018-07-30T12:02:48.716Z,1.20
2018-07-30T12:05:16.887Z,1.00
2018-07-30T12:07:45.918Z,1.05
2018-07-30T12:10:15.306Z,0.70
2018-07-30T12:12:44.246Z,0.98
2018-07-30T12:15:15.529Z,0.85
2018-07-30T12:17:44.175Z,1.10
2018-07-30T12:20:13.386Z,0.85
2018-07-30T12:22:42.076Z,0.70
2018-07-30T12:25:10.049Z,0.85
2018-07-30T12:27:39.021Z,0.88
2018-07-30T12:30:07.689Z,0.80
2018-07-30T12:32:36.572Z,0.90
2018-07-30T12:35:04.769Z,0.88
2018-07-30T12:37:34.669Z,0.82
2018-07-30T12:40:03.598Z,1.12
2018-07-30T12:42:31.781Z,0.78
2018-07-30T12:44:59.915Z,0.90
2018-07-30T12:47:27.953Z,0.75
2018-07-30T12:49:57.512Z,0.70
2018-07-30T12:52:25.584Z,0.90
2018-07-30T12:54:53.245Z,0.70
2018-07-30T12:57:20.917Z,0.85
2018-07-30T12:59:48.521Z,0.62
2018-07-30T13:02:16.085Z,1.10
2018-07-30T13:04:44.638Z,0.70
2018-07-30T13:07:12.265Z,1.15
2018-07-30T13:09:39.840Z,0.60
2018-07-30T13:12:07.527Z,1.02
2018-07-30T13:14:35.082Z,0.80
2018-07-30T13:17:02.664Z,1.00
2018-07-30T13:19:30.244Z,1.22
2018-07-30T13:21:57.808Z,1.00
2018-07-30T13:24:25.430Z,0.85
2018-07-30T13:26:53.007Z,0.57
2018-07-30T13:29:20.577Z,0.80
2018-07-30T13:31:48.126Z,0.85
2018-07-30T13:34:15.708Z,0.90
2018-07-30T13:36:43.307Z,0.95
2018-07-30T13:39:10.874Z,0.80
2018-07-30T13:41:38.856Z,1.00
2018-07-30T13:44:06.928Z,1.07
2018-07-30T13:46:34.506Z,1.10
2018-07-30T13:49:02.112Z,0.93
2018-07-30T13:51:29.731Z,0.90
2018-07-30T13:53:57.289Z,1.32
2018-07-30T13:56:24.873Z,1.20
2018-07-30T13:58:52.499Z,0.90
2018-07-30T14:01:20.051Z,1.10
2018-07-30T14:03:47.629Z,0.80
2018-07-30T14:06:15.376Z,0.65
2018-07-30T14:08:42.891Z,0.80
2018-07-30T14:11:10.459Z,1.10
2018-07-30T14:13:38.056Z,0.90
2018-07-30T14:16:05.831Z,1.15
2018-07-30T14:18:33.551Z,0.90
2018-07-30T14:21:01.084Z,0.80
2018-07-30T14:23:28.649Z,0.88
2018-07-30T14:25:56.214Z,1.00
2018-07-30T14:28:23.873Z,0.80
2018-07-30T14:30:51.435Z,0.80
2018-07-30T14:33:18.995Z,0.82
2018-07-30T14:35:46.616Z,0.85
2018-07-30T14:38:14.188Z,0.82
2018-07-30T14:40:41.805Z,0.98
2018-07-30T14:43:09.445Z,1.07
2018-07-30T14:45:37.048Z,1.30
2018-07-30T14:48:04.978Z,1.00
2018-07-30T14:50:32.624Z,0.82
2018-07-30T14:53:00.255Z,0.78
2018-07-30T14:55:27.871Z,0.72
2018-07-30T14:57:55.539Z,0.80
2018-07-30T15:00:23.336Z,0.90
2018-07-30T15:02:51.098Z,0.72
2018-07-30T15:05:19.988Z,0.93
2018-07-30T15:07:47.624Z,1.20
2018-07-30T15:10:15.283Z,0.80
2018-07-30T15:12:43.030Z,1.10
2018-07-30T15:15:10.690Z,0.88
2018-07-30T15:17:38.320Z,1.00
2018-07-30T15:20:06.585Z,0.80
2018-07-30T15:22:34.235Z,0.85
2018-07-30T15:25:01.903Z,1.00
2018-07-30T15:27:29.603Z,0.85
2018-07-30T15:29:57.264Z,1.40
2018-07-30T15:32:24.908Z,1.20
2018-07-30T15:34:52.640Z,0.90
2018-07-30T15:37:20.332Z,0.82
2018-07-30T15:39:47.868Z,0.90
2018-07-30T15:42:15.574Z,0.75
2018-07-30T15:44:43.208Z,0.93
2018-07-30T15:47:10.824Z,0.87
2018-07-30T15:49:38.473Z,0.80
2018-07-30T15:52:06.549Z,0.95
2018-07-30T15:54:34.180Z,0.70
2018-07-30T15:57:01.918Z,1.00
2018-07-30T15:59:29.558Z,0.90
2018-07-30T16:01:57.210Z,0.87
2018-07-30T16:04:24.833Z,0.78
2018-07-30T16:06:52.433Z,0.70
2018-07-30T16:09:20.048Z,0.88
2018-07-30T16:11:47.669Z,0.88
2018-07-30T16:14:21.229Z,0.50
2018-07-30T16:16:49.939Z,0.85
2018-07-30T16:19:17.539Z,0.80
2018-07-30T16:21:45.186Z,0.80
2018-07-30T16:24:12.864Z,0.80
2018-07-30T16:26:41.204Z,1.00
2018-07-30T16:29:08.802Z,1.02
2018-07-30T16:31:36.446Z,0.78
2018-07-30T16:34:04.202Z,0.95
2018-07-30T16:36:31.816Z,0.90
2018-07-30T16:38:59.506Z,0.70
2018-07-30T16:41:27.213Z,0.68
2018-07-30T16:43:54.840Z,0.80
2018-07-30T16:46:23.398Z,1.10
2018-07-30T16:48:51.009Z,0.40
2018-07-30T16:51:18.641Z,0.50
2018-07-30T16:53:46.257Z,0.53
2018-07-30T16:56:13.910Z,0.50
2018-07-30T16:58:41.574Z,0.40
2018-07-30T17:01:09.170Z,0.57
2018-07-30T17:03:36.841Z,0.53
2018-07-30T17:06:04.861Z,0.60
2018-07-30T17:08:32.481Z,0.53
2018-07-30T17:11:00.192Z,0.50
2018-07-30T17:13:27.811Z,0.47
2018-07-30T17:15:55.493Z,0.70
2018-07-30T17:18:23.126Z,0.50
2018-07-30T17:20:50.776Z,0.50
2018-07-30T17:23:18.406Z,0.40
2018-07-30T17:25:46.029Z,0.50
2018-07-30T17:28:13.652Z,0.43
2018-07-30T17:30:41.358Z,0.60
2018-07-30T17:33:09.052Z,0.30
2018-07-30T17:35:36.686Z,0.60
2018-07-30T17:38:04.513Z,0.53
2018-07-30T17:40:32.122Z,0.47
2018-07-30T17:42:59.810Z,0.60
2018-07-30T17:45:27.404Z,0.60
2018-07-30T17:47:55.036Z,0.60
2018-07-30T17:50:22.772Z,0.60
2018-07-30T17:52:50.456Z,0.57
2018-07-30T17:55:18.119Z,0.80
2018-07-30T17:57:45.759Z,0.57
2018-07-30T18:00:13.376Z,0.67
2018-07-30T18:02:41.092Z,0.60
2018-07-30T18:05:08.808Z,0.67
2018-07-30T18:07:36.555Z,0.40
2018-07-30T18:10:04.746Z,0.73
2018-07-30T18:12:32.405Z,0.80
2018-07-30T18:15:00.410Z,0.77
2018-07-30T18:17:28.213Z,0.63
2018-07-30T18:19:55.911Z,0.60
2018-07-30T18:22:23.992Z,0.83
2018-07-30T18:24:51.617Z,0.83
2018-07-30T18:27:19.288Z,0.60
2018-07-30T18:29:46.978Z,0.60
2018-07-30T18:32:14.543Z,0.37
2018-07-30T18:34:42.221Z,0.70
2018-07-30T18:37:10.008Z,0.60
2018-07-30T18:39:38.081Z,0.53
2018-07-30T18:42:06.086Z,0.50
2018-07-30T18:44:33.907Z,0.60
2018-07-30T18:47:01.685Z,0.40
2018-07-30T18:49:29.357Z,0.40
2018-07-30T18:51:56.962Z,0.60
2018-07-30T18:54:24.581Z,0.93
2018-07-30T18:56:52.217Z,0.77
2018-07-30T18:59:19.856Z,0.73
2018-07-30T19:01:47.480Z,0.60
2018-07-30T19:04:15.151Z,0.50
2018-07-30T19:06:42.756Z,0.60
2018-07-30T19:09:10.417Z,0.87
2018-07-30T19:11:38.080Z,0.40
2018-07-30T19:14:05.929Z,0.70
2018-07-30T19:16:33.552Z,0.70
2018-07-30T19:19:01.147Z,0.60
2018-07-30T19:21:28.797Z,0.80
2018-07-30T19:23:56.440Z,0.40
2018-07-30T19:26:24.021Z,0.70
2018-07-30T19:28:51.653Z,0.53
2018-07-30T19:31:19.271Z,0.60
2018-07-30T19:33:47.129Z,0.53
2018-07-30T19:36:15.271Z,0.60
2018-07-30T19:38:42.889Z,0.50
2018-07-30T19:41:10.560Z,0.50
2018-07-30T19:43:38.197Z,0.63
2018-07-30T19:46:05.973Z,0.63
2018-07-30T19:48:33.672Z,0.43
2018-07-30T19:51:01.452Z,0.60
2018-07-30T19:53:29.134Z,0.50
2018-07-30T19:55:56.928Z,0.73
2018-07-30T19:58:24.969Z,0.60
2018-07-30T20:00:52.750Z,0.90
2018-07-30T20:03:20.953Z,0.60
2018-07-30T20:05:48.692Z,0.60
2018-07-30T20:08:16.478Z,0.40
2018-07-30T20:10:44.269Z,0.70
2018-07-30T20:13:11.946Z,0.50
2018-07-30T20:15:39.716Z,0.57
2018-07-30T20:18:07.495Z,0.60
2018-07-30T20:20:35.112Z,0.40
2018-07-30T20:23:03.021Z,0.70
2018-07-30T20:25:30.678Z,0.80
2018-07-30T20:27:58.429Z,0.73
2018-07-30T20:30:26.382Z,0.47
2018-07-30T20:32:54.132Z,0.97
2018-07-30T20:35:21.792Z,0.63
2018-07-30T20:37:49.436Z,0.57
2018-07-30T20:40:16.988Z,0.57
2018-07-30T20:42:44.630Z,0.93
2018-07-30T20:45:12.252Z,0.67
2018-07-30T20:47:39.856Z,0.70
2018-07-30T20:50:07.532Z,0.60
2018-07-30T20:52:35.193Z,0.70
2018-07-30T20:55:02.850Z,0.57
2018-07-30T20:57:30.512Z,0.63
2018-07-30T20:59:58.152Z,0.80
2018-07-30T21:02:25.804Z,0.40
2018-07-30T21:04:53.441Z,0.57
2018-07-30T21:07:21.228Z,0.73
2018-07-30T21:09:48.848Z,0.70
2018-07-30T21:12:16.546Z,0.70
2018-07-30T21:14:44.132Z,0.90
2018-07-30T21:17:11.817Z,0.57
2018-07-30T21:19:39.460Z,0.77
2018-07-30T21:22:07.084Z,0.93
2018-07-30T21:24:34.753Z,0.60
2018-07-30T21:27:02.460Z,0.70
2018-07-30T21:29:30.108Z,0.50
2018-07-30T21:31:57.782Z,1.00
2018-07-30T21:34:25.417Z,0.70
2018-07-30T21:36:53.075Z,0.70
2018-07-30T21:39:20.748Z,0.77
2018-07-30T21:41:48.470Z,0.80
2018-07-30T21:44:16.119Z,0.80
2018-07-30T21:46:43.750Z,0.70
2018-07-30T21:49:11.371Z,0.70
2018-07-30T21:51:38.996Z,0.70
2018-07-30T21:54:06.749Z,0.57
2018-07-30T21:56:34.324Z,0.87
2018-07-30T21:59:01.964Z,0.97
2018-07-30T22:01:29.618Z,0.70
2018-07-30T22:03:57.392Z,0.67
2018-07-30T22:06:25.025Z,0.60
2018-07-30T22:08:52.674Z,0.70
2018-07-30T22:11:20.335Z,0.50
2018-07-30T22:13:48.089Z,0.60
2018-07-30T22:16:15.739Z,0.90
2018-07-30T22:18:43.450Z,0.83
2018-07-30T22:21:11.085Z,0.70
2018-07-30T22:23:38.763Z,0.60
2018-07-30T22:26:06.442Z,0.80
2018-07-30T22:28:34.028Z,0.67
2018-07-30T22:31:01.741Z,0.63
2018-07-30T22:33:29.335Z,0.90
2018-07-30T22:35:56.941Z,0.80
2018-07-30T22:38:24.746Z,0.60
2018-07-30T22:40:52.404Z,0.70
2018-07-30T22:43:20.016Z,0.70
2018-07-30T22:45:47.638Z,0.90
2018-07-30T22:48:15.268Z,0.97
2018-07-30T22:50:42.878Z,0.70
2018-07-30T22:53:10.776Z,0.77
2018-07-30T22:55:38.390Z,0.83
2018-07-30T22:58:06.006Z,0.93
2018-07-30T23:00:33.732Z,0.80
2018-07-30T23:03:01.347Z,0.80
2018-07-30T23:05:28.988Z,0.97
2018-07-30T23:07:56.662Z,1.23
2018-07-30T23:10:24.338Z,1.23
2018-07-30T23:12:51.972Z,0.70
2018-07-30T23:15:19.736Z,0.70
2018-07-30T23:17:47.386Z,0.93
2018-07-30T23:20:15.164Z,0.90
2018-07-30T23:22:42.792Z,0.77
2018-07-30T23:25:10.421Z,1.10
2018-07-30T23:27:38.028Z,1.17
2018-07-30T23:30:06.090Z,0.87
2018-07-30T23:32:33.673Z,0.60
2018-07-30T23:35:01.292Z,1.37
2018-07-30T23:37:28.921Z,1.13
2018-07-30T23:39:56.520Z,1.17
2018-07-30T23:42:24.159Z,0.87
2018-07-30T23:44:51.834Z,1.50
2018-07-30T23:47:19.444Z,0.87
2018-07-30T23:49:47.103Z,0.97
2018-07-30T23:52:14.757Z,1.20
2018-07-30T23:54:42.409Z,1.00
2018-07-30T23:57:09.997Z,1.10
2018-07-30T23:59:37.637Z,1.10
